createdAt,value
2023-06-23T00:01:22.342Z,7.70
2023-06-23T00:03:49.141Z,7.20
2023-06-23T00:06:15.960Z,7.50
2023-06-23T00:08:42.708Z,7.47
2023-06-23T00:11:10.931Z,8.10
2023-06-23T00:13:38.355Z,7.67
2023-06-23T00:16:05.653Z,7.80
2023-06-23T00:18:38.255Z,7.87
2023-06-23T00:21:06.275Z,6.77
2023-06-23T00:23:32.756Z,6.80
2023-06-23T00:25:59.355Z,7.10
2023-06-23T00:28:28.468Z,6.37
2023-06-23T00:30:55.564Z,6.50
2023-06-23T00:33:21.870Z,7.27
2023-06-23T00:35:48.228Z,6.97
2023-06-23T00:38:14.754Z,6.70
2023-06-23T00:40:41.548Z,6.80
2023-06-23T00:43:08.286Z,6.67
2023-06-23T00:45:34.908Z,6.53
2023-06-23T00:48:03.221Z,6.73
2023-06-23T00:50:30.534Z,6.53
2023-06-23T00:52:57.387Z,6.87
2023-06-23T00:55:27.340Z,7.20
2023-06-23T00:57:55.450Z,7.17
2023-06-23T01:00:22.497Z,7.57
2023-06-23T01:02:53.141Z,7.93
2023-06-23T01:05:31.613Z,7.87
2023-06-23T01:08:05.305Z,7.53
2023-06-23T01:10:40.905Z,7.40
2023-06-23T01:13:14.849Z,7.13
2023-06-23T01:15:44.755Z,7.40
2023-06-23T01:18:14.779Z,7.17
2023-06-23T01:20:42.794Z,7.10
2023-06-23T01:23:15.521Z,7.53
2023-06-23T01:25:51.099Z,7.33
2023-06-23T01:28:40.124Z,6.97
2023-06-23T01:31:08.649Z,6.53
2023-06-23T01:33:39.085Z,7.37
2023-06-23T01:36:07.886Z,7.33
2023-06-23T01:38:37.786Z,7.43
2023-06-23T01:41:07.933Z,7.43
2023-06-23T01:43:36.161Z,7.53
2023-06-23T01:46:05.359Z,7.27
2023-06-23T01:48:35.849Z,7.60
2023-06-23T01:51:04.140Z,7.60
2023-06-23T01:53:31.744Z,7.97
2023-06-23T01:55:59.027Z,7.33
2023-06-23T01:58:26.009Z,7.77
2023-06-23T02:00:53.580Z,7.57
2023-06-23T02:03:20.441Z,7.23
2023-06-23T02:05:48.476Z,7.50
2023-06-23T02:08:15.640Z,7.33
2023-06-23T02:10:42.201Z,7.73
2023-06-23T02:13:12.773Z,7.67
2023-06-23T02:15:40.468Z,7.57
2023-06-23T02:18:08.916Z,7.57
2023-06-23T02:20:36.457Z,6.93
2023-06-23T02:23:03.057Z,8.17
2023-06-23T02:25:29.763Z,7.47
2023-06-23T02:27:57.254Z,7.23
2023-06-23T02:30:23.934Z,7.63
2023-06-23T02:32:50.257Z,7.50
2023-06-23T02:35:16.962Z,7.63
2023-06-23T02:37:46.547Z,7.30
2023-06-23T02:40:17.683Z,6.70
2023-06-23T02:42:57.239Z,7.33
2023-06-23T02:45:25.795Z,6.63
2023-06-23T02:47:53.984Z,6.80
2023-06-23T02:50:23.243Z,6.60
2023-06-23T02:52:54.141Z,6.60
2023-06-23T02:55:21.504Z,6.70
2023-06-23T02:57:49.664Z,6.37
2023-06-23T03:00:21.052Z,6.13
2023-06-23T03:02:48.991Z,6.03
2023-06-23T03:05:16.076Z,6.10
2023-06-23T03:07:42.425Z,6.33
2023-06-23T03:10:09.097Z,6.87
2023-06-23T03:12:35.723Z,6.47
2023-06-23T03:15:02.355Z,6.43
2023-06-23T03:17:30.220Z,6.87
2023-06-23T03:19:58.453Z,6.83
2023-06-23T03:22:28.849Z,6.67
2023-06-23T03:24:57.519Z,6.83
2023-06-23T03:27:26.166Z,7.20
2023-06-23T03:29:59.120Z,6.47
2023-06-23T03:32:32.187Z,7.10
2023-06-23T03:35:11.416Z,6.57
2023-06-23T03:37:40.506Z,7.13
2023-06-23T03:40:10.460Z,6.80
2023-06-23T03:42:39.871Z,6.70
2023-06-23T03:45:07.807Z,7.30
2023-06-23T03:47:34.701Z,7.63
2023-06-23T03:50:03.816Z,7.30
2023-06-23T03:52:30.604Z,7.60
2023-06-23T03:54:57.213Z,7.00
2023-06-23T03:57:26.112Z,6.83
2023-06-23T03:59:53.166Z,7.83
2023-06-23T04:02:21.592Z,7.03
2023-06-23T04:04:49.157Z,7.40
2023-06-23T04:07:15.812Z,7.73
2023-06-23T04:09:43.510Z,7.00
2023-06-23T04:12:11.248Z,7.90
2023-06-23T04:14:37.959Z,7.10
2023-06-23T04:17:05.425Z,7.00
2023-06-23T04:19:31.890Z,7.87
2023-06-23T04:22:00.155Z,8.07
2023-06-23T04:24:26.895Z,7.60
2023-06-23T04:26:55.180Z,7.30
2023-06-23T04:29:23.716Z,6.93
2023-06-23T04:31:51.032Z,7.23
2023-06-23T04:34:17.394Z,7.80
2023-06-23T04:36:46.495Z,7.67
2023-06-23T04:39:17.016Z,7.63
2023-06-23T04:41:46.987Z,7.80
2023-06-23T04:44:13.819Z,7.27
2023-06-23T04:46:41.588Z,7.70
2023-06-23T04:49:09.517Z,7.90
2023-06-23T04:51:38.122Z,7.63
2023-06-23T04:54:08.148Z,7.70
2023-06-23T04:56:35.882Z,7.40
2023-06-23T04:59:04.915Z,8.07
2023-06-23T05:01:31.660Z,7.60
2023-06-23T05:03:58.978Z,7.33
2023-06-23T05:06:26.285Z,7.73
2023-06-23T05:08:54.477Z,8.20
2023-06-23T05:11:21.714Z,8.00
2023-06-23T05:13:48.904Z,8.07
2023-06-23T05:16:15.641Z,8.33
2023-06-23T05:18:43.043Z,8.10
2023-06-23T05:21:09.359Z,8.53
2023-06-23T05:26:11.788Z,8.00
2023-06-23T05:28:39.101Z,7.87
2023-06-23T05:31:06.322Z,8.37
2023-06-23T05:33:34.636Z,8.03
2023-06-23T05:36:02.381Z,8.10
2023-06-23T05:38:29.895Z,8.60
2023-06-23T05:40:56.394Z,8.23
2023-06-23T05:43:22.781Z,8.37
2023-06-23T05:45:49.669Z,8.43
2023-06-23T05:48:22.381Z,9.10
2023-06-23T05:50:49.188Z,9.03
2023-06-23T05:53:17.270Z,9.60
2023-06-23T05:55:44.762Z,8.80
2023-06-23T05:58:12.426Z,9.17
2023-06-23T06:00:42.537Z,9.13
2023-06-23T06:03:10.872Z,9.43
2023-06-23T06:05:39.430Z,9.67
2023-06-23T06:08:06.740Z,9.17
2023-06-23T06:10:33.599Z,10.03
2023-06-23T06:13:01.464Z,9.63
2023-06-23T06:15:28.008Z,9.10
2023-06-23T06:17:54.866Z,9.67
2023-06-23T06:20:22.238Z,9.77
2023-06-23T06:22:53.486Z,10.37
2023-06-23T06:25:23.032Z,10.10
2023-06-23T06:27:50.305Z,10.23
2023-06-23T06:30:18.376Z,11.27
2023-06-23T06:32:44.788Z,11.50
2023-06-23T06:35:12.102Z,11.10
2023-06-23T06:37:39.310Z,11.37
2023-06-23T06:40:07.404Z,11.23
2023-06-23T06:42:34.052Z,11.90
2023-06-23T06:45:00.642Z,11.60
2023-06-23T06:47:29.258Z,12.40
2023-06-23T06:49:56.362Z,12.23
2023-06-23T06:52:28.001Z,11.87
2023-06-23T06:55:00.010Z,12.53
2023-06-23T06:57:26.431Z,12.13
2023-06-23T06:59:52.710Z,12.17
2023-06-23T07:02:19.357Z,12.23
2023-06-23T07:04:45.947Z,11.13
2023-06-23T07:07:14.266Z,11.80
2023-06-23T07:09:40.558Z,11.77
2023-06-23T07:12:07.277Z,10.83
2023-06-23T07:14:33.565Z,11.50
2023-06-23T07:16:59.848Z,12.67
2023-06-23T07:19:26.134Z,12.77
2023-06-23T07:21:52.419Z,12.23
2023-06-23T07:24:18.721Z,12.83
2023-06-23T07:26:45.006Z,13.07
2023-06-23T07:29:12.221Z,13.20
2023-06-23T07:31:38.920Z,12.60
2023-06-23T07:34:05.566Z,12.93
2023-06-23T07:36:31.908Z,13.80
2023-06-23T07:38:58.492Z,12.57
2023-06-23T07:41:24.879Z,14.00
2023-06-23T07:43:51.169Z,13.03
2023-06-23T07:46:17.583Z,12.53
2023-06-23T07:48:44.661Z,12.30
2023-06-23T07:51:11.994Z,12.50
2023-06-23T07:53:38.320Z,11.93
2023-06-23T07:56:04.789Z,11.83
2023-06-23T07:58:31.088Z,11.60
2023-06-23T08:00:57.708Z,11.83
2023-06-23T08:03:24.307Z,10.80
2023-06-23T08:05:50.653Z,10.80
2023-06-23T08:08:17.039Z,10.50
2023-06-23T08:10:45.069Z,11.00
2023-06-23T08:13:11.369Z,10.70
2023-06-23T08:15:37.706Z,10.47
2023-06-23T08:18:04.086Z,10.40
2023-06-23T08:20:30.474Z,10.90
2023-06-23T08:22:56.790Z,9.97
2023-06-23T08:25:23.123Z,10.07
2023-06-23T08:27:49.447Z,10.23
2023-06-23T08:30:16.348Z,10.23
2023-06-23T08:32:42.681Z,10.03
2023-06-23T08:35:10.636Z,9.40
2023-06-23T08:37:39.112Z,9.90
2023-06-23T08:40:05.737Z,10.40
2023-06-23T08:42:32.860Z,9.93
2023-06-23T08:45:00.142Z,10.00
2023-06-23T08:47:28.333Z,10.23
2023-06-23T08:49:54.707Z,9.87
2023-06-23T08:52:21.861Z,9.80
2023-06-23T08:54:48.314Z,10.13
2023-06-23T08:57:14.641Z,9.67
2023-06-23T08:59:40.922Z,9.80
2023-06-23T09:02:07.219Z,9.70
2023-06-23T09:04:33.536Z,9.53
2023-06-23T09:07:00.175Z,9.93
2023-06-23T09:09:26.879Z,9.73
2023-06-23T09:11:53.326Z,9.23
2023-06-23T09:14:19.778Z,9.17
2023-06-23T09:16:46.768Z,9.73
2023-06-23T09:19:13.808Z,9.97
2023-06-23T09:21:41.631Z,9.43
2023-06-23T09:24:08.434Z,10.07
2023-06-23T09:26:48.891Z,9.73
2023-06-23T09:29:25.958Z,10.67
2023-06-23T09:31:53.284Z,11.33
2023-06-23T09:34:23.854Z,11.83
2023-06-23T09:36:50.621Z,12.03
2023-06-23T09:39:16.967Z,13.13
2023-06-23T09:41:57.088Z,12.17
2023-06-23T09:44:32.184Z,11.60
2023-06-23T09:47:04.967Z,13.43
2023-06-23T09:49:41.569Z,13.93
2023-06-23T09:52:08.424Z,13.93
2023-06-23T09:54:35.475Z,13.83
2023-06-23T09:57:02.312Z,14.77
2023-06-23T09:59:30.985Z,15.80
2023-06-23T10:01:57.401Z,14.97
2023-06-23T10:04:30.869Z,16.80
2023-06-23T10:06:58.129Z,16.10
2023-06-23T10:09:25.070Z,17.60
2023-06-23T10:11:51.750Z,17.97
2023-06-23T10:14:19.240Z,17.33
2023-06-23T10:16:45.845Z,17.63
2023-06-23T10:19:13.184Z,18.57
2023-06-23T10:21:40.634Z,16.60
2023-06-23T10:24:08.896Z,17.83
2023-06-23T10:26:36.571Z,16.93
2023-06-23T10:29:07.973Z,17.57
2023-06-23T10:31:35.892Z,17.20
2023-06-23T10:34:05.422Z,16.47
2023-06-23T10:36:32.459Z,16.50
2023-06-23T10:39:01.218Z,16.63
2023-06-23T10:41:27.708Z,16.23
2023-06-23T10:43:56.751Z,16.00
2023-06-23T10:46:26.534Z,15.30
2023-06-23T10:48:52.929Z,14.33
2023-06-23T10:51:19.441Z,14.47
2023-06-23T10:53:47.551Z,15.47
2023-06-23T10:56:30.384Z,14.37
2023-06-23T10:58:56.678Z,13.77
2023-06-23T11:01:23.077Z,13.23
2023-06-23T11:03:53.770Z,13.10
2023-06-23T11:06:27.732Z,12.20
2023-06-23T11:08:54.025Z,12.33
2023-06-23T11:11:30.578Z,11.70
2023-06-23T11:13:57.551Z,12.07
2023-06-23T11:16:35.662Z,12.00
2023-06-23T11:19:03.562Z,11.93
2023-06-23T11:21:38.927Z,10.80
2023-06-23T11:24:09.182Z,8.97
2023-06-23T11:26:35.895Z,8.90
2023-06-23T11:29:02.180Z,8.50
2023-06-23T11:31:30.127Z,8.27
2023-06-23T11:33:56.466Z,7.73
2023-06-23T11:36:24.565Z,8.57
2023-06-23T11:38:51.448Z,8.20
2023-06-23T11:41:43.880Z,8.03
2023-06-23T11:44:11.602Z,8.90
2023-06-23T11:46:37.919Z,8.40
2023-06-23T11:49:11.207Z,7.97
2023-06-23T11:51:37.750Z,8.80
2023-06-23T11:54:06.235Z,8.67
2023-06-23T11:56:33.636Z,9.87
2023-06-23T11:59:02.708Z,9.73
2023-06-23T12:01:29.039Z,9.87
2023-06-23T12:03:55.440Z,10.13
2023-06-23T12:06:24.112Z,9.40
2023-06-23T12:08:51.024Z,10.33
2023-06-23T12:11:19.017Z,10.23
2023-06-23T12:13:49.600Z,10.20
2023-06-23T12:16:15.997Z,10.00
2023-06-23T12:18:45.671Z,10.40
2023-06-23T12:21:12.028Z,10.17
2023-06-23T12:23:38.642Z,10.33
2023-06-23T12:26:07.863Z,9.27
2023-06-23T12:28:34.172Z,9.30
2023-06-23T12:31:00.616Z,7.60
2023-06-23T12:33:30.426Z,7.03
2023-06-23T12:36:00.476Z,7.80
2023-06-23T12:38:27.673Z,6.97
2023-06-23T12:40:54.530Z,6.60
2023-06-23T12:43:21.372Z,6.23
2023-06-23T12:45:48.313Z,6.67
2023-06-23T12:48:14.713Z,6.30
2023-06-23T12:50:42.672Z,5.87
2023-06-23T12:53:09.508Z,5.93
2023-06-23T12:55:36.354Z,5.50
2023-06-23T12:58:02.872Z,5.40
2023-06-23T13:00:29.171Z,5.43
2023-06-23T13:02:55.657Z,5.57
2023-06-23T13:05:22.106Z,5.13
2023-06-23T13:07:48.405Z,5.20
2023-06-23T13:10:14.700Z,5.23
2023-06-23T13:12:41.017Z,4.70
2023-06-23T13:15:07.463Z,5.37
2023-06-23T13:17:33.925Z,4.80
2023-06-23T13:20:00.726Z,5.40
2023-06-23T13:22:27.120Z,5.30
2023-06-23T13:24:57.299Z,5.40
2023-06-23T13:27:24.610Z,5.83
2023-06-23T13:29:51.036Z,5.20
2023-06-23T13:32:18.174Z,5.90
2023-06-23T13:34:44.507Z,6.40
2023-06-23T13:37:11.083Z,5.60
2023-06-23T13:39:38.357Z,5.73
2023-06-23T13:42:05.658Z,5.30
2023-06-23T13:44:31.968Z,5.90
2023-06-23T13:46:58.272Z,5.63
2023-06-23T13:49:26.557Z,5.60
2023-06-23T13:51:53.042Z,4.80
2023-06-23T13:54:19.778Z,5.27
2023-06-23T13:56:46.133Z,5.13
2023-06-23T13:59:12.495Z,5.47
2023-06-23T14:01:38.828Z,4.70
2023-06-23T14:04:05.192Z,5.07
2023-06-23T14:06:31.586Z,4.07
2023-06-23T14:08:58.770Z,4.33
2023-06-23T14:11:25.147Z,4.27
2023-06-23T14:13:51.462Z,4.00
2023-06-23T14:16:17.924Z,4.13
2023-06-23T14:18:44.735Z,3.40
2023-06-23T14:21:12.959Z,4.03
2023-06-23T14:23:39.360Z,3.50
2023-06-23T14:26:05.707Z,3.80
2023-06-23T14:28:31.966Z,3.70
2023-06-23T14:30:58.316Z,3.53
2023-06-23T14:33:24.650Z,3.93
2023-06-23T14:35:50.964Z,4.20
2023-06-23T14:38:17.251Z,4.53
2023-06-23T14:40:43.614Z,4.50
2023-06-23T14:43:10.815Z,4.40
2023-06-23T14:45:38.259Z,4.27
2023-06-23T14:48:05.193Z,4.37
2023-06-23T14:50:31.522Z,4.50
2023-06-23T14:52:57.869Z,4.60
2023-06-23T14:55:25.292Z,4.90
2023-06-23T14:57:51.630Z,4.73
2023-06-23T15:00:18.164Z,4.80
2023-06-23T15:02:44.487Z,5.37
2023-06-23T15:05:10.855Z,5.13
2023-06-23T15:07:37.199Z,5.57
2023-06-23T15:10:03.884Z,5.83
2023-06-23T15:12:30.273Z,5.77
2023-06-23T15:14:57.133Z,5.53
2023-06-23T15:17:23.423Z,5.70
2023-06-23T15:19:49.750Z,6.30
2023-06-23T15:22:16.053Z,6.07
2023-06-23T15:24:42.499Z,5.90
2023-06-23T15:27:08.791Z,6.00
2023-06-23T15:29:35.093Z,5.63
2023-06-23T15:32:01.487Z,5.90
2023-06-23T15:34:30.903Z,5.90
2023-06-23T15:36:57.382Z,5.90
2023-06-23T15:39:23.689Z,6.33
2023-06-23T15:41:51.019Z,6.10
2023-06-23T15:44:18.146Z,6.00
2023-06-23T15:46:44.417Z,5.57
2023-06-23T15:49:10.812Z,5.40
2023-06-23T15:51:40.774Z,6.00
2023-06-23T15:54:07.834Z,6.00
2023-06-23T15:56:35.217Z,5.27
2023-06-23T15:59:01.484Z,5.40
2023-06-23T16:01:27.820Z,5.47
2023-06-23T16:03:54.301Z,5.40
2023-06-23T16:06:20.822Z,5.20
2023-06-23T16:08:47.166Z,5.27
2023-06-23T16:11:13.509Z,5.23
2023-06-23T16:13:39.828Z,5.57
2023-06-23T16:16:06.393Z,5.50
2023-06-23T16:18:32.809Z,5.47
2023-06-23T16:20:59.688Z,5.73
2023-06-23T16:23:27.114Z,6.10
2023-06-23T16:25:53.640Z,5.93
2023-06-23T16:28:19.990Z,5.80
2023-06-23T16:30:48.462Z,5.90
2023-06-23T16:33:14.986Z,6.10
2023-06-23T16:35:41.647Z,5.83
2023-06-23T16:38:07.919Z,6.00
2023-06-23T16:40:34.201Z,6.03
2023-06-23T16:43:05.329Z,6.10
2023-06-23T16:45:32.359Z,6.53
2023-06-23T16:47:58.998Z,5.93
2023-06-23T16:50:26.157Z,6.50
2023-06-23T16:52:52.479Z,6.40
2023-06-23T16:55:18.847Z,6.87
2023-06-23T16:57:45.278Z,6.03
2023-06-23T17:00:12.505Z,6.33
2023-06-23T17:02:39.409Z,6.87
2023-06-23T17:05:06.543Z,6.70
2023-06-23T17:07:35.947Z,6.43
2023-06-23T17:10:02.254Z,6.87
2023-06-23T17:12:29.147Z,6.57
2023-06-23T17:14:55.496Z,6.80
2023-06-23T17:17:22.267Z,7.43
2023-06-23T17:19:48.804Z,7.70
2023-06-23T17:22:16.057Z,7.90
2023-06-23T17:24:44.738Z,8.13
2023-06-23T17:27:11.018Z,7.70
2023-06-23T17:29:37.540Z,8.20
2023-06-23T17:32:04.052Z,7.53
2023-06-23T17:34:30.432Z,7.77
2023-06-23T17:36:56.755Z,8.27
2023-06-23T17:39:23.102Z,8.00
2023-06-23T17:41:49.976Z,8.60
2023-06-23T17:44:16.315Z,8.57
2023-06-23T17:46:42.734Z,8.67
2023-06-23T17:49:09.699Z,8.77
2023-06-23T17:51:37.152Z,8.77
2023-06-23T17:54:04.118Z,8.73
2023-06-23T17:56:31.134Z,8.60
2023-06-23T17:58:57.398Z,8.90
2023-06-23T18:01:23.852Z,9.53
2023-06-23T18:03:50.523Z,8.70
2023-06-23T18:06:17.592Z,9.13
2023-06-23T18:08:43.967Z,9.60
2023-06-23T18:11:10.666Z,9.57
2023-06-23T18:13:36.948Z,9.70
2023-06-23T18:16:03.301Z,10.27
2023-06-23T18:18:29.658Z,10.03
2023-06-23T18:20:55.960Z,10.20
2023-06-23T18:23:22.286Z,10.00
2023-06-23T18:25:48.553Z,10.40
2023-06-23T18:28:14.857Z,9.53
2023-06-23T18:30:41.285Z,9.87
2023-06-23T18:33:07.959Z,9.43
2023-06-23T18:35:34.312Z,9.30
2023-06-23T18:38:00.887Z,8.60
2023-06-23T18:40:27.251Z,9.13
2023-06-23T18:42:53.540Z,9.10
2023-06-23T18:45:21.267Z,9.13
2023-06-23T18:47:47.607Z,8.83
2023-06-23T18:50:14.015Z,8.37
2023-06-23T18:52:41.218Z,7.70
2023-06-23T18:55:07.995Z,7.90
2023-06-23T18:57:34.484Z,8.33
2023-06-23T19:00:04.454Z,7.67
2023-06-23T19:02:31.238Z,8.00
2023-06-23T19:04:57.602Z,8.10
2023-06-23T19:07:24.010Z,7.90
2023-06-23T19:09:51.010Z,7.97
2023-06-23T19:12:17.326Z,7.80
2023-06-23T19:14:43.596Z,7.93
2023-06-23T19:17:10.131Z,7.87
2023-06-23T19:19:40.650Z,8.23
2023-06-23T19:22:07.422Z,8.30
2023-06-23T19:24:37.482Z,8.10
2023-06-23T19:27:04.136Z,8.13
2023-06-23T19:29:30.514Z,8.23
2023-06-23T19:31:57.036Z,8.10
2023-06-23T19:34:23.421Z,8.57
2023-06-23T19:36:49.741Z,9.00
2023-06-23T19:39:16.997Z,8.63
2023-06-23T19:41:43.361Z,8.23
2023-06-23T19:44:09.715Z,7.70
2023-06-23T19:46:36.028Z,8.47
2023-06-23T19:49:02.310Z,8.30
2023-06-23T19:51:29.340Z,8.53
2023-06-23T19:53:55.615Z,8.17
2023-06-23T19:56:22.002Z,8.63
2023-06-23T19:58:48.441Z,8.97
2023-06-23T20:01:18.494Z,7.73
2023-06-23T20:03:46.214Z,8.10
2023-06-23T20:06:12.748Z,8.57
2023-06-23T20:08:39.022Z,8.13
2023-06-23T20:11:05.467Z,8.07
2023-06-23T20:13:32.877Z,8.03
2023-06-23T20:15:59.191Z,8.67
2023-06-23T20:18:26.029Z,8.47
2023-06-23T20:20:52.418Z,7.50
2023-06-23T20:23:18.753Z,7.93
2023-06-23T20:25:45.052Z,8.30
2023-06-23T20:28:11.329Z,8.23
2023-06-23T20:30:37.885Z,8.00
2023-06-23T20:33:04.199Z,8.10
2023-06-23T20:35:30.542Z,8.27
2023-06-23T20:37:56.936Z,7.57
2023-06-23T20:40:23.210Z,7.63
2023-06-23T20:42:49.617Z,7.80
2023-06-23T20:45:17.134Z,7.53
2023-06-23T20:47:43.671Z,7.47
2023-06-23T20:50:10.242Z,7.60
2023-06-23T20:52:36.706Z,7.20
2023-06-23T20:55:03.025Z,7.80
2023-06-23T20:57:29.309Z,7.90
2023-06-23T20:59:55.600Z,8.37
2023-06-23T21:02:21.942Z,7.63
2023-06-23T21:04:48.340Z,7.60
2023-06-23T21:07:14.682Z,7.90
2023-06-23T21:09:40.986Z,8.13
2023-06-23T21:12:09.723Z,8.17
2023-06-23T21:14:37.152Z,7.87
2023-06-23T21:17:03.554Z,7.53
2023-06-23T21:19:31.821Z,8.70
2023-06-23T21:21:58.112Z,8.13
2023-06-23T21:24:24.384Z,7.70
2023-06-23T21:26:50.823Z,8.30
2023-06-23T21:29:17.262Z,8.37
2023-06-23T21:31:43.618Z,8.43
2023-06-23T21:34:10.102Z,8.13
2023-06-23T21:36:36.402Z,7.70
2023-06-23T21:39:02.688Z,7.60
2023-06-23T21:41:29.152Z,7.80
2023-06-23T21:43:55.477Z,7.50
2023-06-23T21:46:21.778Z,7.63
2023-06-23T21:48:55.281Z,8.03
2023-06-23T21:51:22.765Z,7.43
2023-06-23T21:53:49.067Z,8.07
2023-06-23T21:56:15.823Z,7.97
2023-06-23T21:58:43.017Z,8.03
2023-06-23T22:01:10.101Z,8.40
2023-06-23T22:03:39.766Z,7.93
2023-06-23T22:06:06.471Z,7.90
2023-06-23T22:08:32.803Z,8.00
2023-06-23T22:10:59.231Z,7.73
2023-06-23T22:13:30.356Z,7.33
2023-06-23T22:15:59.737Z,7.73
2023-06-23T22:20:55.493Z,7.50
2023-06-23T22:23:22.052Z,7.57
2023-06-23T22:25:48.318Z,7.90
2023-06-23T22:28:14.717Z,7.67
2023-06-23T22:30:41.670Z,7.50
2023-06-23T22:33:07.933Z,7.37
2023-06-23T22:35:34.255Z,7.23
2023-06-23T22:38:01.359Z,7.73
2023-06-23T22:40:27.678Z,6.97
2023-06-23T22:42:53.973Z,7.13
2023-06-23T22:45:20.252Z,6.73
2023-06-23T22:47:46.597Z,7.83
2023-06-23T22:50:12.897Z,7.07
2023-06-23T22:52:40.546Z,7.67
2023-06-23T22:55:10.082Z,7.70
2023-06-23T22:57:36.429Z,7.67
2023-06-23T23:00:04.122Z,6.90
2023-06-23T23:02:30.437Z,7.93
2023-06-23T23:04:56.795Z,7.87
2023-06-23T23:07:24.124Z,8.43
2023-06-23T23:09:50.414Z,7.27
2023-06-23T23:12:16.775Z,7.33
2023-06-23T23:14:43.049Z,8.00
2023-06-23T23:17:09.440Z,7.97
2023-06-23T23:19:35.712Z,8.30
2023-06-23T23:22:02.019Z,8.40
2023-06-23T23:24:28.338Z,8.70
2023-06-23T23:26:54.664Z,8.13
2023-06-23T23:29:25.953Z,8.60
2023-06-23T23:31:54.654Z,8.90
2023-06-23T23:34:30.219Z,9.00
2023-06-23T23:36:56.972Z,9.03
2023-06-23T23:39:23.803Z,8.97
2023-06-23T23:41:50.199Z,8.90
2023-06-23T23:44:16.492Z,8.87
2023-06-23T23:46:44.697Z,9.40
2023-06-23T23:49:11.980Z,9.37
2023-06-23T23:51:38.386Z,9.43
2023-06-23T23:54:05.397Z,9.00
2023-06-23T23:56:32.408Z,9.40
2023-06-23T23:58:59.271Z,9.60
